createdAt,value
2023-03-07T00:00:50.453Z,13.10
2023-03-07T00:03:53.273Z,13.20
2023-03-07T00:06:57.310Z,13.20
2023-03-07T00:09:59.671Z,13.20
2023-03-07T00:13:01.928Z,13.20
2023-03-07T00:16:09.592Z,13.30
2023-03-07T00:19:11.798Z,13.30
2023-03-07T00:22:14.727Z,13.30
2023-03-07T00:25:18.055Z,13.40
2023-03-07T00:28:20.229Z,13.40
2023-03-07T00:31:24.252Z,13.40
2023-03-07T00:34:26.685Z,13.40
2023-03-07T00:37:32.030Z,13.40
2023-03-07T00:40:34.940Z,13.50
2023-03-07T00:43:40.338Z,13.40
2023-03-07T00:46:42.626Z,13.40
2023-03-07T00:49:44.895Z,13.40
2023-03-07T00:52:47.019Z,13.40
2023-03-07T00:56:00.332Z,13.40
2023-03-07T00:59:03.156Z,13.40
2023-03-07T01:02:06.452Z,13.40
2023-03-07T01:05:09.005Z,13.40
2023-03-07T01:08:11.378Z,13.40
2023-03-07T01:11:14.427Z,13.30
2023-03-07T01:14:16.777Z,13.30
2023-03-07T01:17:19.072Z,13.30
2023-03-07T01:20:22.255Z,13.30
2023-03-07T01:23:24.496Z,13.30
2023-03-07T01:26:29.710Z,13.30
2023-03-07T01:29:33.034Z,13.30
2023-03-07T01:32:35.502Z,13.20
2023-03-07T01:35:41.339Z,13.20
2023-03-07T01:38:43.463Z,13.20
2023-03-07T01:41:46.793Z,13.20
2023-03-07T01:45:34.051Z,13.20
2023-03-07T01:48:36.587Z,13.20
2023-03-07T01:51:41.858Z,13.20
2023-03-07T01:54:49.291Z,13.10
2023-03-07T01:57:52.833Z,13.10
2023-03-07T02:00:57.560Z,13.10
2023-03-07T02:04:38.263Z,13.10
2023-03-07T02:07:49.276Z,13.10
2023-03-07T02:10:52.025Z,13.10
2023-03-07T02:13:54.328Z,13.10
2023-03-07T02:16:56.582Z,13.10
2023-03-07T02:20:26.255Z,13.10
2023-03-07T02:23:51.974Z,13.10
2023-03-07T02:26:54.179Z,13.10
2023-03-07T02:29:57.324Z,13.10
2023-03-07T02:32:59.527Z,13.10
2023-03-07T02:36:33.425Z,13.10
2023-03-07T02:39:36.240Z,13.10
2023-03-07T02:42:42.367Z,13.10
2023-03-07T02:45:44.541Z,13.10
2023-03-07T02:48:47.574Z,13.10
2023-03-07T02:51:49.873Z,13.10
2023-03-07T02:54:52.092Z,13.10
2023-03-07T02:57:54.217Z,13.10
2023-03-07T03:00:56.414Z,13.00
2023-03-07T03:03:58.711Z,13.00
2023-03-07T03:07:00.963Z,13.00
2023-03-07T03:10:03.810Z,12.90
2023-03-07T03:13:07.732Z,12.90
2023-03-07T03:16:09.920Z,12.90
2023-03-07T03:19:12.077Z,12.90
2023-03-07T03:22:14.344Z,12.90
2023-03-07T03:25:16.485Z,12.90
2023-03-07T03:28:18.706Z,12.80
2023-03-07T03:31:20.946Z,12.80
2023-03-07T03:34:23.358Z,12.80
2023-03-07T03:37:25.530Z,12.80
2023-03-07T03:40:27.933Z,12.80
2023-03-07T03:43:30.207Z,12.70
2023-03-07T03:46:32.498Z,12.70
2023-03-07T03:49:34.748Z,12.70
2023-03-07T03:52:37.260Z,12.60
2023-03-07T03:55:39.486Z,12.60
2023-03-07T03:58:41.682Z,12.70
2023-03-07T04:01:44.048Z,12.60
2023-03-07T04:04:46.265Z,12.60
2023-03-07T04:07:50.925Z,12.60
2023-03-07T04:10:54.368Z,12.60
2023-03-07T04:13:57.005Z,12.60
2023-03-07T04:16:59.209Z,12.50
2023-03-07T04:20:01.491Z,12.60
2023-03-07T04:23:03.800Z,12.60
2023-03-07T04:26:07.687Z,12.50
2023-03-07T04:29:10.591Z,12.50
2023-03-07T04:32:12.787Z,12.50
2023-03-07T04:35:14.946Z,12.40
2023-03-07T04:38:17.279Z,12.50
2023-03-07T04:41:22.003Z,12.40
2023-03-07T04:44:24.293Z,12.50
2023-03-07T04:47:26.737Z,12.50
2023-03-07T04:50:28.951Z,12.40
2023-03-07T04:53:31.216Z,12.40
2023-03-07T04:56:33.398Z,12.40
2023-03-07T04:59:39.262Z,12.40
2023-03-07T05:02:41.526Z,12.40
2023-03-07T05:05:43.758Z,12.30
2023-03-07T05:08:45.984Z,12.30
2023-03-07T05:11:48.080Z,12.30
2023-03-07T05:14:50.303Z,12.30
2023-03-07T05:17:52.965Z,12.40
2023-03-07T05:20:55.292Z,12.40
2023-03-07T05:23:57.631Z,12.50
2023-03-07T05:27:01.052Z,12.50
2023-03-07T05:30:03.954Z,12.50
2023-03-07T05:33:06.123Z,12.60
2023-03-07T05:36:08.682Z,12.60
2023-03-07T05:39:11.601Z,12.70
2023-03-07T05:42:16.421Z,12.60
2023-03-07T05:45:18.652Z,12.70
2023-03-07T05:48:21.011Z,12.60
2023-03-07T05:51:23.542Z,12.70
2023-03-07T05:54:26.405Z,12.60
2023-03-07T05:57:28.493Z,12.60
2023-03-07T06:00:31.051Z,12.70
2023-03-07T06:03:33.614Z,12.70
2023-03-07T06:06:36.057Z,12.80
2023-03-07T06:09:39.130Z,12.70
2023-03-07T06:12:42.855Z,12.80
2023-03-07T06:15:45.225Z,12.70
2023-03-07T06:18:47.666Z,12.70
2023-03-07T06:21:50.118Z,12.80
2023-03-07T06:24:52.368Z,12.70
2023-03-07T06:27:59.863Z,12.80
2023-03-07T06:31:02.214Z,12.70
2023-03-07T06:34:06.043Z,12.70
2023-03-07T06:37:08.371Z,12.60
2023-03-07T06:40:11.265Z,12.60
2023-03-07T06:43:16.748Z,12.60
2023-03-07T06:46:20.632Z,12.50
2023-03-07T06:49:23.041Z,12.50
2023-03-07T06:52:25.224Z,12.40
2023-03-07T06:55:27.451Z,12.40
2023-03-07T06:58:30.624Z,12.40
2023-03-07T07:01:32.952Z,12.30
2023-03-07T07:04:35.110Z,12.30
2023-03-07T07:07:37.309Z,12.30
2023-03-07T07:10:39.476Z,12.30
2023-03-07T07:13:41.732Z,12.30
2023-03-07T07:16:43.908Z,12.30
2023-03-07T07:19:46.159Z,12.40
2023-03-07T07:22:48.304Z,12.30
2023-03-07T07:25:50.439Z,12.40
2023-03-07T07:28:52.735Z,12.60
2023-03-07T07:31:55.226Z,13.10
2023-03-07T07:34:57.893Z,13.60
2023-03-07T07:38:00.041Z,14.30
2023-03-07T07:41:02.573Z,14.70
2023-03-07T07:44:04.817Z,15.40
2023-03-07T07:47:07.024Z,15.90
2023-03-07T07:50:09.872Z,16.00
2023-03-07T07:53:12.226Z,16.50
2023-03-07T07:56:14.908Z,16.80
2023-03-07T07:59:17.101Z,17.30
2023-03-07T08:02:19.341Z,17.60
2023-03-07T08:05:22.367Z,18.10
2023-03-07T08:08:24.527Z,18.90
2023-03-07T08:11:26.992Z,19.70
2023-03-07T08:14:29.228Z,20.30
2023-03-07T08:17:31.389Z,20.60
2023-03-07T08:20:33.990Z,21.40
2023-03-07T08:23:37.683Z,21.70
2023-03-07T08:26:39.877Z,22.00
2023-03-07T08:29:42.034Z,21.80
2023-03-07T08:32:44.300Z,21.30
2023-03-07T08:35:46.494Z,21.00
2023-03-07T08:38:52.498Z,20.50
2023-03-07T08:41:55.536Z,20.30
2023-03-07T08:44:57.764Z,19.90
2023-03-07T08:48:00.298Z,19.70
2023-03-07T08:51:08.995Z,20.00
2023-03-07T08:54:11.428Z,21.80
2023-03-07T08:57:13.693Z,22.90
2023-03-07T09:00:16.530Z,23.10
2023-03-07T09:03:18.767Z,22.90
2023-03-07T09:06:21.773Z,22.80
2023-03-07T09:09:23.967Z,23.10
2023-03-07T09:12:27.064Z,23.80
2023-03-07T09:15:29.421Z,24.90
2023-03-07T09:18:31.811Z,25.90
2023-03-07T09:21:34.113Z,25.90
2023-03-07T09:24:36.208Z,25.30
2023-03-07T09:27:38.440Z,26.10
2023-03-07T09:30:40.559Z,27.10
2023-03-07T09:33:46.525Z,28.00
2023-03-07T09:36:51.684Z,28.60
2023-03-07T09:39:53.807Z,28.60
2023-03-07T09:43:16.289Z,28.90
2023-03-07T09:47:04.763Z,30.30
2023-03-07T09:50:36.933Z,29.80
2023-03-07T09:54:03.121Z,29.60
2023-03-07T09:57:11.052Z,29.20
2023-03-07T10:00:43.025Z,28.50
2023-03-07T10:03:59.188Z,28.20
2023-03-07T10:07:04.196Z,28.60
2023-03-07T10:10:14.489Z,29.80
2023-03-07T10:13:53.963Z,30.60
2023-03-07T10:17:15.616Z,29.60
2023-03-07T10:20:26.736Z,28.60
2023-03-07T10:23:56.992Z,28.60
2023-03-07T10:27:13.481Z,27.60
2023-03-07T10:30:21.189Z,26.20
2023-03-07T10:33:23.598Z,26.80
2023-03-07T10:36:42.505Z,27.00
2023-03-07T10:39:55.312Z,28.00
2023-03-07T10:42:59.253Z,27.90
2023-03-07T10:46:23.659Z,29.30
2023-03-07T10:49:44.243Z,29.70
2023-03-07T10:52:53.780Z,29.60
2023-03-07T10:56:17.115Z,28.70
2023-03-07T10:59:25.948Z,28.00
2023-03-07T11:02:46.028Z,27.90
2023-03-07T11:05:50.296Z,26.90
2023-03-07T11:08:52.753Z,26.50
2023-03-07T11:12:12.200Z,25.60
2023-03-07T11:15:23.817Z,24.90
2023-03-07T11:18:31.972Z,24.10
2023-03-07T11:21:35.772Z,23.70
2023-03-07T11:24:40.153Z,23.30
2023-03-07T11:27:51.299Z,23.10
2023-03-07T11:31:14.395Z,23.10
2023-03-07T11:34:36.954Z,23.30
2023-03-07T11:37:44.973Z,23.10
2023-03-07T11:41:06.096Z,23.50
2023-03-07T11:44:35.156Z,24.10
2023-03-07T11:47:37.337Z,25.10
2023-03-07T11:50:43.066Z,26.70
2023-03-07T11:53:48.085Z,27.60
2023-03-07T11:56:56.538Z,26.50
2023-03-07T12:00:18.155Z,26.30
2023-03-07T12:03:39.094Z,26.10
2023-03-07T12:06:49.878Z,25.70
2023-03-07T12:10:25.724Z,24.30
2023-03-07T12:13:33.799Z,24.20
2023-03-07T12:17:00.322Z,23.80
2023-03-07T12:20:19.120Z,23.70
2023-03-07T12:23:33.948Z,23.60
2023-03-07T12:26:58.329Z,23.70
2023-03-07T12:30:05.403Z,22.70
2023-03-07T12:33:13.378Z,22.90
2023-03-07T12:36:46.551Z,23.00
2023-03-07T12:39:58.730Z,22.90
2023-03-07T12:43:22.369Z,22.80
2023-03-07T12:46:40.601Z,22.80
2023-03-07T12:49:50.070Z,22.30
2023-03-07T12:52:58.589Z,22.20
2023-03-07T12:56:39.319Z,22.20
2023-03-07T12:59:43.810Z,22.30
2023-03-07T13:03:06.883Z,22.30
2023-03-07T13:06:16.951Z,22.30
2023-03-07T13:09:26.135Z,22.10
2023-03-07T13:12:29.751Z,22.10
2023-03-07T13:15:38.082Z,22.00
2023-03-07T13:18:40.516Z,21.90
2023-03-07T13:21:42.702Z,22.00
2023-03-07T13:24:46.131Z,22.10
2023-03-07T13:27:49.525Z,21.90
2023-03-07T13:31:21.148Z,21.70
2023-03-07T13:34:46.924Z,21.70
2023-03-07T13:37:51.226Z,21.70
2023-03-07T13:40:58.678Z,21.40
2023-03-07T13:44:02.243Z,21.40
2023-03-07T13:47:05.418Z,21.50
2023-03-07T13:50:35.558Z,21.50
2023-03-07T13:53:45.669Z,21.60
2023-03-07T13:56:49.020Z,21.60
2023-03-07T13:59:51.727Z,21.50
2023-03-07T14:02:54.993Z,21.50
2023-03-07T14:06:08.202Z,21.60
2023-03-07T14:09:18.273Z,21.80
2023-03-07T14:13:09.528Z,21.70
2023-03-07T14:16:28.108Z,21.70
2023-03-07T14:19:45.489Z,21.40
2023-03-07T14:23:18.590Z,21.20
2023-03-07T14:26:23.230Z,21.00
2023-03-07T14:29:27.866Z,21.00
2023-03-07T14:32:31.821Z,21.20
2023-03-07T14:35:45.142Z,21.00
2023-03-07T14:38:49.940Z,21.00
2023-03-07T14:42:02.662Z,20.90
2023-03-07T14:45:21.581Z,20.70
2023-03-07T14:48:35.938Z,20.70
2023-03-07T14:51:41.685Z,20.60
2023-03-07T14:54:46.806Z,20.50
2023-03-07T14:57:53.248Z,20.70
2023-03-07T15:01:04.277Z,20.50
2023-03-07T15:04:29.475Z,20.30
2023-03-07T15:07:35.677Z,20.20
2023-03-07T15:10:47.154Z,20.00
2023-03-07T15:13:58.629Z,19.80
2023-03-07T15:17:17.087Z,19.70
2023-03-07T15:20:23.588Z,19.70
2023-03-07T15:23:29.286Z,19.60
2023-03-07T15:26:33.111Z,19.50
2023-03-07T15:29:35.302Z,19.40
2023-03-07T15:32:39.225Z,19.40
2023-03-07T15:35:42.231Z,19.40
2023-03-07T15:38:47.309Z,19.50
2023-03-07T15:42:19.849Z,19.50
2023-03-07T15:45:35.100Z,19.40
2023-03-07T15:48:49.667Z,19.30
2023-03-07T15:51:55.518Z,19.10
2023-03-07T15:54:59.332Z,18.90
2023-03-07T15:58:04.571Z,18.80
2023-03-07T16:01:23.392Z,18.70
2023-03-07T16:04:43.703Z,18.50
2023-03-07T16:07:46.298Z,18.30
2023-03-07T16:10:51.003Z,18.20
2023-03-07T16:13:53.204Z,18.20
2023-03-07T16:17:29.779Z,18.10
2023-03-07T16:20:32.000Z,18.20
2023-03-07T16:23:34.434Z,18.10
2023-03-07T16:26:37.026Z,18.00
2023-03-07T16:29:39.185Z,18.00
2023-03-07T16:32:41.791Z,18.00
2023-03-07T16:35:45.443Z,18.00
2023-03-07T16:38:47.912Z,18.00
2023-03-07T16:41:50.720Z,18.10
2023-03-07T16:44:52.942Z,18.00
2023-03-07T16:47:57.749Z,18.00
2023-03-07T16:51:00.043Z,17.90
2023-03-07T16:54:02.755Z,17.80
2023-03-07T16:57:07.136Z,17.80
2023-03-07T17:00:15.550Z,17.70
2023-03-07T17:03:18.577Z,17.70
2023-03-07T17:06:25.501Z,17.70
2023-03-07T17:09:33.583Z,17.60
2023-03-07T17:12:35.740Z,17.70
2023-03-07T17:15:38.361Z,17.60
2023-03-07T17:18:40.476Z,17.50
2023-03-07T17:21:43.683Z,17.50
2023-03-07T17:24:45.791Z,17.50
2023-03-07T17:27:52.952Z,17.50
2023-03-07T17:30:55.149Z,17.50
2023-03-07T17:33:57.327Z,17.50
2023-03-07T17:37:00.487Z,17.40
2023-03-07T17:40:06.013Z,17.40
2023-03-07T17:43:08.436Z,17.40
2023-03-07T17:46:11.904Z,17.40
2023-03-07T17:49:14.075Z,17.40
2023-03-07T17:52:16.302Z,17.40
2023-03-07T17:55:18.932Z,17.40
2023-03-07T17:58:21.098Z,17.40
2023-03-07T18:01:23.227Z,17.30
2023-03-07T18:04:26.017Z,17.30
2023-03-07T18:07:28.366Z,17.30
2023-03-07T18:10:30.845Z,17.30
2023-03-07T18:13:33.661Z,17.30
2023-03-07T18:16:35.841Z,17.30
2023-03-07T18:19:38.951Z,17.30
2023-03-07T18:22:41.919Z,17.30
2023-03-07T18:25:44.109Z,17.40
2023-03-07T18:28:47.758Z,17.30
2023-03-07T18:31:50.277Z,17.30
2023-03-07T18:34:55.582Z,17.30
2023-03-07T18:37:58.894Z,17.30
2023-03-07T18:41:25.236Z,17.30
2023-03-07T18:44:27.383Z,17.20
2023-03-07T18:47:29.503Z,17.30
2023-03-07T18:50:31.928Z,17.30
2023-03-07T18:53:35.303Z,17.30
2023-03-07T18:56:37.953Z,17.30
2023-03-07T18:59:40.241Z,17.20
2023-03-07T19:02:42.354Z,17.20
2023-03-07T19:05:49.507Z,17.20
2023-03-07T19:08:51.648Z,17.20
2023-03-07T19:11:54.910Z,17.20
2023-03-07T19:14:57.108Z,17.20
2023-03-07T19:17:59.449Z,17.20
2023-03-07T19:21:09.474Z,17.20
2023-03-07T19:24:12.171Z,17.20
2023-03-07T19:27:14.290Z,17.20
2023-03-07T19:30:19.152Z,17.20
2023-03-07T19:33:21.537Z,17.20
2023-03-07T19:36:29.417Z,17.20
2023-03-07T19:39:31.633Z,17.10
2023-03-07T19:42:34.027Z,17.10
2023-03-07T19:45:40.506Z,17.10
2023-03-07T19:48:44.239Z,17.10
2023-03-07T19:51:46.527Z,17.10
2023-03-07T19:54:53.424Z,17.10
2023-03-07T19:57:55.517Z,17.20
2023-03-07T20:00:59.290Z,17.10
2023-03-07T20:04:02.061Z,17.10
2023-03-07T20:07:04.172Z,17.20
2023-03-07T20:10:06.698Z,17.10
2023-03-07T20:13:09.105Z,17.20
2023-03-07T20:16:11.889Z,17.20
2023-03-07T20:19:14.399Z,17.10
2023-03-07T20:22:17.716Z,17.10
2023-03-07T20:25:20.862Z,17.20
2023-03-07T20:28:23.262Z,17.10
2023-03-07T20:31:25.974Z,17.10
2023-03-07T20:34:28.937Z,17.10
2023-03-07T20:37:33.917Z,17.20
2023-03-07T20:40:36.040Z,17.20
2023-03-07T20:43:38.414Z,17.20
2023-03-07T20:46:41.509Z,17.10
2023-03-07T20:49:45.579Z,17.10
2023-03-07T20:52:47.666Z,17.10
2023-03-07T20:55:50.792Z,17.10
2023-03-07T20:58:54.175Z,17.10
2023-03-07T21:01:56.412Z,17.10
2023-03-07T21:04:58.701Z,17.10
2023-03-07T21:08:01.103Z,17.10
2023-03-07T21:11:11.027Z,17.00
2023-03-07T21:14:15.383Z,17.10
2023-03-07T21:17:17.599Z,17.00
2023-03-07T21:20:20.146Z,17.00
2023-03-07T21:23:22.464Z,17.00
2023-03-07T21:26:30.346Z,17.00
2023-03-07T21:29:32.509Z,17.00
2023-03-07T21:32:34.735Z,17.00
2023-03-07T21:35:38.451Z,16.90
2023-03-07T21:38:42.459Z,16.90
2023-03-07T21:41:44.688Z,16.90
2023-03-07T21:44:46.890Z,16.90
2023-03-07T21:47:53.410Z,16.80
2023-03-07T21:50:55.671Z,16.90
2023-03-07T21:53:58.012Z,16.90
2023-03-07T21:57:00.186Z,16.80
2023-03-07T22:00:02.650Z,16.80
2023-03-07T22:03:05.043Z,16.80
2023-03-07T22:06:12.547Z,16.80
2023-03-07T22:09:15.629Z,16.80
2023-03-07T22:12:17.771Z,16.80
2023-03-07T22:15:19.927Z,16.80
2023-03-07T22:18:22.060Z,16.80
2023-03-07T22:21:27.947Z,16.80
2023-03-07T22:24:30.139Z,16.80
2023-03-07T22:27:32.525Z,16.90
2023-03-07T22:30:34.993Z,16.90
2023-03-07T22:33:37.427Z,16.90
2023-03-07T22:36:39.579Z,16.80
2023-03-07T22:39:41.723Z,16.80
2023-03-07T22:42:44.162Z,16.80
2023-03-07T22:45:50.665Z,16.80
2023-03-07T22:48:54.494Z,16.80
2023-03-07T22:51:56.888Z,16.90
2023-03-07T22:55:01.734Z,16.80
2023-03-07T22:58:05.158Z,16.80
2023-03-07T23:01:20.394Z,16.80
2023-03-07T23:04:22.702Z,16.80
2023-03-07T23:07:26.500Z,16.80
2023-03-07T23:10:30.104Z,16.70
2023-03-07T23:13:32.587Z,16.70
2023-03-07T23:16:36.569Z,16.70
2023-03-07T23:19:47.646Z,16.70
2023-03-07T23:22:50.206Z,16.70
2023-03-07T23:25:59.302Z,16.70
2023-03-07T23:29:02.459Z,16.60
2023-03-07T23:32:07.961Z,16.70
2023-03-07T23:35:19.242Z,16.60
2023-03-07T23:38:22.280Z,16.60
2023-03-07T23:41:25.227Z,16.60
2023-03-07T23:44:27.411Z,16.60
2023-03-07T23:47:29.595Z,16.60
2023-03-07T23:50:31.942Z,16.60
2023-03-07T23:53:34.142Z,16.60
2023-03-07T23:56:36.346Z,16.50
2023-03-07T23:59:38.610Z,16.50
